sensor_id;sensor_type;location;lat;lon;timestamp;temperature;humidity
33865;DHT22;20159;51.072;13.526;2023-04-24T00:02:02;13.30;93.60
33865;DHT22;20159;51.072;13.526;2023-04-24T00:04:29;13.30;93.60
33865;DHT22;20159;51.072;13.526;2023-04-24T00:06:55;13.30;93.60
33865;DHT22;20159;51.072;13.526;2023-04-24T00:09:22;13.30;93.60
33865;DHT22;20159;51.072;13.526;2023-04-24T00:11:48;13.30;93.50
33865;DHT22;20159;51.072;13.526;2023-04-24T00:14:13;13.30;93.50
33865;DHT22;20159;51.072;13.526;2023-04-24T00:16:39;13.30;93.50
33865;DHT22;20159;51.072;13.526;2023-04-24T00:19:05;13.30;93.50
33865;DHT22;20159;51.072;13.526;2023-04-24T00:21:32;13.30;93.50
33865;DHT22;20159;51.072;13.526;2023-04-24T00:23:58;13.30;93.50
33865;DHT22;20159;51.072;13.526;2023-04-24T00:26:23;13.30;93.60
33865;DHT22;20159;51.072;13.526;2023-04-24T00:28:49;13.30;93.60
33865;DHT22;20159;51.072;13.526;2023-04-24T00:31:14;13.30;93.60
33865;DHT22;20159;51.072;13.526;2023-04-24T00:33:40;13.30;93.60
33865;DHT22;20159;51.072;13.526;2023-04-24T00:36:06;13.30;93.70
33865;DHT22;20159;51.072;13.526;2023-04-24T00:38:32;13.30;93.70
33865;DHT22;20159;51.072;13.526;2023-04-24T00:40:57;13.30;93.70
33865;DHT22;20159;51.072;13.526;2023-04-24T00:43:23;13.30;93.80
33865;DHT22;20159;51.072;13.526;2023-04-24T00:45:48;13.30;93.80
33865;DHT22;20159;51.072;13.526;2023-04-24T00:48:14;13.30;93.90
33865;DHT22;20159;51.072;13.526;2023-04-24T00:50:40;13.30;93.90
33865;DHT22;20159;51.072;13.526;2023-04-24T00:53:06;13.30;93.90
33865;DHT22;20159;51.072;13.526;2023-04-24T00:55:32;13.30;93.80
33865;DHT22;20159;51.072;13.526;2023-04-24T00:57:58;13.30;93.70
33865;DHT22;20159;51.072;13.526;2023-04-24T01:00:24;13.30;93.70
33865;DHT22;20159;51.072;13.526;2023-04-24T01:02:51;13.30;93.60
33865;DHT22;20159;51.072;13.526;2023-04-24T01:05:17;13.30;93.60
33865;DHT22;20159;51.072;13.526;2023-04-24T01:07:45;13.30;93.60
33865;DHT22;20159;51.072;13.526;2023-04-24T01:10:13;13.30;93.60
33865;DHT22;20159;51.072;13.526;2023-04-24T01:12:39;13.30;93.60
33865;DHT22;20159;51.072;13.526;2023-04-24T01:15:05;13.20;93.70
33865;DHT22;20159;51.072;13.526;2023-04-24T01:17:32;13.20;93.90
33865;DHT22;20159;51.072;13.526;2023-04-24T01:19:58;13.20;94.00
33865;DHT22;20159;51.072;13.526;2023-04-24T01:22:25;13.20;94.10
33865;DHT22;20159;51.072;13.526;2023-04-24T01:24:51;13.30;94.20
33865;DHT22;20159;51.072;13.526;2023-04-24T01:27:17;13.30;94.20
33865;DHT22;20159;51.072;13.526;2023-04-24T01:29:42;13.30;94.30
33865;DHT22;20159;51.072;13.526;2023-04-24T01:32:08;13.30;94.30
33865;DHT22;20159;51.072;13.526;2023-04-24T01:34:34;13.40;94.20
33865;DHT22;20159;51.072;13.526;2023-04-24T01:37:00;13.40;94.20
33865;DHT22;20159;51.072;13.526;2023-04-24T01:39:26;13.50;94.20
33865;DHT22;20159;51.072;13.526;2023-04-24T01:41:54;13.50;94.00
33865;DHT22;20159;51.072;13.526;2023-04-24T01:44:20;13.60;93.90
33865;DHT22;20159;51.072;13.526;2023-04-24T01:46:45;13.60;93.90
33865;DHT22;20159;51.072;13.526;2023-04-24T01:49:11;13.70;93.80
33865;DHT22;20159;51.072;13.526;2023-04-24T01:51:37;13.70;93.70
33865;DHT22;20159;51.072;13.526;2023-04-24T01:54:02;13.80;93.70
33865;DHT22;20159;51.072;13.526;2023-04-24T01:56:33;13.80;93.60
33865;DHT22;20159;51.072;13.526;2023-04-24T01:59:00;13.90;93.70
33865;DHT22;20159;51.072;13.526;2023-04-24T02:01:26;13.90;93.40
33865;DHT22;20159;51.072;13.526;2023-04-24T02:03:52;14.00;93.40
33865;DHT22;20159;51.072;13.526;2023-04-24T02:06:17;14.00;93.30
33865;DHT22;20159;51.072;13.526;2023-04-24T02:08:43;14.00;93.30
33865;DHT22;20159;51.072;13.526;2023-04-24T02:11:09;14.00;93.20
33865;DHT22;20159;51.072;13.526;2023-04-24T02:13:35;14.10;93.20
33865;DHT22;20159;51.072;13.526;2023-04-24T02:16:01;15.50;93.40
33865;DHT22;20159;51.072;13.526;2023-04-24T02:18:26;14.10;93.00
33865;DHT22;20159;51.072;13.526;2023-04-24T02:20:52;14.20;93.00
33865;DHT22;20159;51.072;13.526;2023-04-24T02:23:18;14.20;93.00
33865;DHT22;20159;51.072;13.526;2023-04-24T02:25:43;14.20;92.90
33865;DHT22;20159;51.072;13.526;2023-04-24T02:28:09;11.90;92.20
33865;DHT22;20159;51.072;13.526;2023-04-24T02:30:34;14.30;92.90
33865;DHT22;20159;51.072;13.526;2023-04-24T02:33:00;14.30;92.70
33865;DHT22;20159;51.072;13.526;2023-04-24T02:35:25;14.30;92.60
33865;DHT22;20159;51.072;13.526;2023-04-24T02:37:51;14.30;92.60
33865;DHT22;20159;51.072;13.526;2023-04-24T02:40:16;14.30;92.40
33865;DHT22;20159;51.072;13.526;2023-04-24T02:42:42;14.30;92.40
33865;DHT22;20159;51.072;13.526;2023-04-24T02:45:08;14.30;92.30
33865;DHT22;20159;51.072;13.526;2023-04-24T02:47:33;14.30;92.10
33865;DHT22;20159;51.072;13.526;2023-04-24T02:49:59;14.30;92.20
33865;DHT22;20159;51.072;13.526;2023-04-24T02:52:24;14.20;92.10
33865;DHT22;20159;51.072;13.526;2023-04-24T02:54:50;14.20;92.20
33865;DHT22;20159;51.072;13.526;2023-04-24T02:57:15;14.20;92.20
33865;DHT22;20159;51.072;13.526;2023-04-24T02:59:41;14.20;92.20
33865;DHT22;20159;51.072;13.526;2023-04-24T03:02:06;14.20;92.10
33865;DHT22;20159;51.072;13.526;2023-04-24T03:04:32;14.30;92.10
33865;DHT22;20159;51.072;13.526;2023-04-24T03:06:57;14.20;92.10
33865;DHT22;20159;51.072;13.526;2023-04-24T03:09:24;14.20;92.00
33865;DHT22;20159;51.072;13.526;2023-04-24T03:11:49;14.20;91.90
33865;DHT22;20159;51.072;13.526;2023-04-24T03:14:15;14.20;91.90
33865;DHT22;20159;51.072;13.526;2023-04-24T03:16:41;14.20;92.00
33865;DHT22;20159;51.072;13.526;2023-04-24T03:19:07;14.20;91.90
33865;DHT22;20159;51.072;13.526;2023-04-24T03:21:32;14.20;91.90
33865;DHT22;20159;51.072;13.526;2023-04-24T03:23:58;14.20;91.80
33865;DHT22;20159;51.072;13.526;2023-04-24T03:26:23;14.20;91.70
33865;DHT22;20159;51.072;13.526;2023-04-24T03:28:49;14.10;91.80
33865;DHT22;20159;51.072;13.526;2023-04-24T03:31:14;14.10;91.70
33865;DHT22;20159;51.072;13.526;2023-04-24T03:33:40;14.10;91.50
33865;DHT22;20159;51.072;13.526;2023-04-24T03:36:06;14.20;91.60
33865;DHT22;20159;51.072;13.526;2023-04-24T03:38:32;15.80;91.90
33865;DHT22;20159;51.072;13.526;2023-04-24T03:40:57;14.20;91.50
33865;DHT22;20159;51.072;13.526;2023-04-24T03:43:23;14.20;91.50
33865;DHT22;20159;51.072;13.526;2023-04-24T03:45:48;14.20;91.40
33865;DHT22;20159;51.072;13.526;2023-04-24T03:48:14;14.20;91.40
33865;DHT22;20159;51.072;13.526;2023-04-24T03:50:39;14.10;91.20
33865;DHT22;20159;51.072;13.526;2023-04-24T03:53:05;14.10;91.20
33865;DHT22;20159;51.072;13.526;2023-04-24T03:55:30;14.10;91.30
33865;DHT22;20159;51.072;13.526;2023-04-24T03:57:55;14.10;91.30
33865;DHT22;20159;51.072;13.526;2023-04-24T04:00:21;14.10;91.20
33865;DHT22;20159;51.072;13.526;2023-04-24T04:02:47;14.10;91.20
33865;DHT22;20159;51.072;13.526;2023-04-24T04:05:12;14.10;91.20
33865;DHT22;20159;51.072;13.526;2023-04-24T04:07:38;14.10;91.00
33865;DHT22;20159;51.072;13.526;2023-04-24T04:10:03;14.10;91.10
33865;DHT22;20159;51.072;13.526;2023-04-24T04:12:29;14.10;91.00
33865;DHT22;20159;51.072;13.526;2023-04-24T04:14:55;14.10;91.00
33865;DHT22;20159;51.072;13.526;2023-04-24T04:17:20;14.10;91.10
33865;DHT22;20159;51.072;13.526;2023-04-24T04:19:46;14.00;91.00
33865;DHT22;20159;51.072;13.526;2023-04-24T04:22:11;14.10;90.90
33865;DHT22;20159;51.072;13.526;2023-04-24T04:24:37;14.00;91.00
33865;DHT22;20159;51.072;13.526;2023-04-24T04:27:04;14.00;90.90
33865;DHT22;20159;51.072;13.526;2023-04-24T04:29:30;14.00;90.90
33865;DHT22;20159;51.072;13.526;2023-04-24T04:31:57;14.00;90.90
33865;DHT22;20159;51.072;13.526;2023-04-24T04:34:22;14.00;90.90
33865;DHT22;20159;51.072;13.526;2023-04-24T04:36:48;14.00;91.00
33865;DHT22;20159;51.072;13.526;2023-04-24T04:39:14;14.00;91.00
33865;DHT22;20159;51.072;13.526;2023-04-24T04:41:42;14.00;91.00
33865;DHT22;20159;51.072;13.526;2023-04-24T04:44:07;14.00;90.90
33865;DHT22;20159;51.072;13.526;2023-04-24T04:46:34;14.00;90.80
33865;DHT22;20159;51.072;13.526;2023-04-24T04:49:00;14.00;91.10
33865;DHT22;20159;51.072;13.526;2023-04-24T04:51:26;14.10;91.20
33865;DHT22;20159;51.072;13.526;2023-04-24T04:53:59;14.10;91.10
33865;DHT22;20159;51.072;13.526;2023-04-24T04:56:25;14.20;90.90
33865;DHT22;20159;51.072;13.526;2023-04-24T04:58:51;14.20;91.00
33865;DHT22;20159;51.072;13.526;2023-04-24T05:01:16;14.30;91.00
33865;DHT22;20159;51.072;13.526;2023-04-24T05:03:42;14.40;90.90
33865;DHT22;20159;51.072;13.526;2023-04-24T05:06:08;14.50;90.80
33865;DHT22;20159;51.072;13.526;2023-04-24T05:08:33;14.50;90.90
33865;DHT22;20159;51.072;13.526;2023-04-24T05:10:59;14.60;90.90
33865;DHT22;20159;51.072;13.526;2023-04-24T05:13:25;14.70;90.80
33865;DHT22;20159;51.072;13.526;2023-04-24T05:15:50;14.80;90.70
33865;DHT22;20159;51.072;13.526;2023-04-24T05:18:16;14.90;90.70
33865;DHT22;20159;51.072;13.526;2023-04-24T05:20:41;14.90;90.10
33865;DHT22;20159;51.072;13.526;2023-04-24T05:23:09;15.00;90.10
33865;DHT22;20159;51.072;13.526;2023-04-24T05:25:35;15.10;90.10
33865;DHT22;20159;51.072;13.526;2023-04-24T05:28:01;15.20;89.90
33865;DHT22;20159;51.072;13.526;2023-04-24T05:30:27;15.20;88.90
33865;DHT22;20159;51.072;13.526;2023-04-24T05:32:52;15.30;88.90
33865;DHT22;20159;51.072;13.526;2023-04-24T05:35:18;15.30;89.00
33865;DHT22;20159;51.072;13.526;2023-04-24T05:37:44;15.40;89.20
33865;DHT22;20159;51.072;13.526;2023-04-24T05:40:10;15.40;89.20
33865;DHT22;20159;51.072;13.526;2023-04-24T05:42:36;15.40;88.50
33865;DHT22;20159;51.072;13.526;2023-04-24T05:45:02;15.50;88.30
33865;DHT22;20159;51.072;13.526;2023-04-24T05:47:27;15.50;87.50
33865;DHT22;20159;51.072;13.526;2023-04-24T05:49:53;15.50;87.30
33865;DHT22;20159;51.072;13.526;2023-04-24T05:52:18;15.60;87.30
33865;DHT22;20159;51.072;13.526;2023-04-24T05:54:44;15.60;86.60
33865;DHT22;20159;51.072;13.526;2023-04-24T05:57:09;15.60;86.60
33865;DHT22;20159;51.072;13.526;2023-04-24T05:59:37;15.60;86.30
33865;DHT22;20159;51.072;13.526;2023-04-24T06:02:04;15.70;85.80
33865;DHT22;20159;51.072;13.526;2023-04-24T06:04:29;15.70;86.30
33865;DHT22;20159;51.072;13.526;2023-04-24T06:06:55;15.80;86.70
33865;DHT22;20159;51.072;13.526;2023-04-24T06:09:24;15.80;86.40
33865;DHT22;20159;51.072;13.526;2023-04-24T06:11:50;15.80;85.70
33865;DHT22;20159;51.072;13.526;2023-04-24T06:14:18;15.90;85.60
33865;DHT22;20159;51.072;13.526;2023-04-24T06:16:44;15.90;85.60
33865;DHT22;20159;51.072;13.526;2023-04-24T06:19:10;15.90;85.30
33865;DHT22;20159;51.072;13.526;2023-04-24T06:21:35;15.90;85.40
33865;DHT22;20159;51.072;13.526;2023-04-24T06:24:01;16.00;84.80
33865;DHT22;20159;51.072;13.526;2023-04-24T06:26:27;16.00;85.70
33865;DHT22;20159;51.072;13.526;2023-04-24T06:28:53;16.10;85.10
33865;DHT22;20159;51.072;13.526;2023-04-24T06:31:21;16.10;85.00
33865;DHT22;20159;51.072;13.526;2023-04-24T06:33:48;16.20;85.00
33865;DHT22;20159;51.072;13.526;2023-04-24T06:36:14;16.30;84.90
33865;DHT22;20159;51.072;13.526;2023-04-24T06:38:39;16.40;85.50
33865;DHT22;20159;51.072;13.526;2023-04-24T06:41:05;16.40;85.20
33865;DHT22;20159;51.072;13.526;2023-04-24T06:43:31;16.50;84.80
33865;DHT22;20159;51.072;13.526;2023-04-24T06:45:57;16.60;84.10
33865;DHT22;20159;51.072;13.526;2023-04-24T06:48:24;16.70;83.80
33865;DHT22;20159;51.072;13.526;2023-04-24T06:50:50;16.80;83.30
33865;DHT22;20159;51.072;13.526;2023-04-24T06:53:15;16.90;83.00
33865;DHT22;20159;51.072;13.526;2023-04-24T06:55:41;16.90;82.40
33865;DHT22;20159;51.072;13.526;2023-04-24T06:58:08;17.00;82.90
33865;DHT22;20159;51.072;13.526;2023-04-24T07:00:34;17.00;83.00
33865;DHT22;20159;51.072;13.526;2023-04-24T07:02:59;17.00;82.40
33865;DHT22;20159;51.072;13.526;2023-04-24T07:05:25;17.10;82.10
33865;DHT22;20159;51.072;13.526;2023-04-24T07:07:51;17.10;81.70
33865;DHT22;20159;51.072;13.526;2023-04-24T07:10:17;17.20;81.10
33865;DHT22;20159;51.072;13.526;2023-04-24T07:12:43;17.20;81.10
33865;DHT22;20159;51.072;13.526;2023-04-24T07:15:09;17.30;81.50
33865;DHT22;20159;51.072;13.526;2023-04-24T07:17:34;17.30;81.10
33865;DHT22;20159;51.072;13.526;2023-04-24T07:20:00;17.40;81.50
33865;DHT22;20159;51.072;13.526;2023-04-24T07:22:26;17.50;81.20
33865;DHT22;20159;51.072;13.526;2023-04-24T07:24:51;17.60;81.30
33865;DHT22;20159;51.072;13.526;2023-04-24T07:27:17;17.70;80.20
33865;DHT22;20159;51.072;13.526;2023-04-24T07:29:43;17.80;80.10
33865;DHT22;20159;51.072;13.526;2023-04-24T07:32:08;17.90;79.20
33865;DHT22;20159;51.072;13.526;2023-04-24T07:34:34;18.10;79.60
33865;DHT22;20159;51.072;13.526;2023-04-24T07:37:00;18.30;80.40
33865;DHT22;20159;51.072;13.526;2023-04-24T07:39:26;18.40;80.00
33865;DHT22;20159;51.072;13.526;2023-04-24T07:41:52;18.60;78.70
33865;DHT22;20159;51.072;13.526;2023-04-24T07:44:21;18.80;78.80
33865;DHT22;20159;51.072;13.526;2023-04-24T07:46:47;19.00;78.20
33865;DHT22;20159;51.072;13.526;2023-04-24T07:49:12;19.20;77.70
33865;DHT22;20159;51.072;13.526;2023-04-24T07:51:38;19.30;76.20
33865;DHT22;20159;51.072;13.526;2023-04-24T07:54:05;19.40;76.20
33865;DHT22;20159;51.072;13.526;2023-04-24T07:56:33;19.50;76.60
33865;DHT22;20159;51.072;13.526;2023-04-24T07:58:59;19.70;76.00
33865;DHT22;20159;51.072;13.526;2023-04-24T08:01:26;19.80;75.50
33865;DHT22;20159;51.072;13.526;2023-04-24T08:03:52;19.90;74.40
33865;DHT22;20159;51.072;13.526;2023-04-24T08:06:17;20.00;73.60
33865;DHT22;20159;51.072;13.526;2023-04-24T08:08:43;20.10;73.10
33865;DHT22;20159;51.072;13.526;2023-04-24T08:11:08;20.20;72.90
33865;DHT22;20159;51.072;13.526;2023-04-24T08:13:34;20.20;72.50
33865;DHT22;20159;51.072;13.526;2023-04-24T08:15:59;20.30;71.70
33865;DHT22;20159;51.072;13.526;2023-04-24T08:18:25;20.40;72.40
33865;DHT22;20159;51.072;13.526;2023-04-24T08:20:51;20.60;71.90
33865;DHT22;20159;51.072;13.526;2023-04-24T08:23:17;20.70;71.60
33865;DHT22;20159;51.072;13.526;2023-04-24T08:25:42;20.90;73.60
33865;DHT22;20159;51.072;13.526;2023-04-24T08:28:09;21.20;71.90
33865;DHT22;20159;51.072;13.526;2023-04-24T08:30:34;21.30;69.90
33865;DHT22;20159;51.072;13.526;2023-04-24T08:33:00;21.50;68.80
33865;DHT22;20159;51.072;13.526;2023-04-24T08:35:25;21.50;67.90
33865;DHT22;20159;51.072;13.526;2023-04-24T08:37:52;21.50;66.30
33865;DHT22;20159;51.072;13.526;2023-04-24T08:40:26;21.40;66.00
33865;DHT22;20159;51.072;13.526;2023-04-24T08:42:54;21.30;66.20
33865;DHT22;20159;51.072;13.526;2023-04-24T08:45:21;21.30;65.40
33865;DHT22;20159;51.072;13.526;2023-04-24T08:47:47;21.10;65.40
33865;DHT22;20159;51.072;13.526;2023-04-24T08:50:14;21.10;65.00
33865;DHT22;20159;51.072;13.526;2023-04-24T08:52:41;21.00;64.40
33865;DHT22;20159;51.072;13.526;2023-04-24T08:55:07;20.90;64.30
33865;DHT22;20159;51.072;13.526;2023-04-24T08:57:33;20.80;64.80
33865;DHT22;20159;51.072;13.526;2023-04-24T08:59:59;20.80;65.50
33865;DHT22;20159;51.072;13.526;2023-04-24T09:02:26;20.80;65.40
33865;DHT22;20159;51.072;13.526;2023-04-24T09:04:52;20.80;64.60
33865;DHT22;20159;51.072;13.526;2023-04-24T09:07:19;20.80;63.90
33865;DHT22;20159;51.072;13.526;2023-04-24T09:09:45;20.80;65.00
33865;DHT22;20159;51.072;13.526;2023-04-24T09:12:11;20.70;64.90
33865;DHT22;20159;51.072;13.526;2023-04-24T09:14:37;20.70;65.00
33865;DHT22;20159;51.072;13.526;2023-04-24T09:17:07;20.70;64.80
33865;DHT22;20159;51.072;13.526;2023-04-24T09:19:33;20.70;65.00
33865;DHT22;20159;51.072;13.526;2023-04-24T09:21:58;20.70;64.70
33865;DHT22;20159;51.072;13.526;2023-04-24T09:24:24;20.70;64.90
33865;DHT22;20159;51.072;13.526;2023-04-24T09:26:57;20.70;65.30
33865;DHT22;20159;51.072;13.526;2023-04-24T09:29:24;20.70;66.80
33865;DHT22;20159;51.072;13.526;2023-04-24T09:31:49;20.80;66.60
33865;DHT22;20159;51.072;13.526;2023-04-24T09:34:24;20.90;65.10
33865;DHT22;20159;51.072;13.526;2023-04-24T09:36:51;21.00;65.10
33865;DHT22;20159;51.072;13.526;2023-04-24T09:39:17;21.10;64.60
33865;DHT22;20159;51.072;13.526;2023-04-24T09:41:52;21.20;64.90
33865;DHT22;20159;51.072;13.526;2023-04-24T09:44:22;21.20;63.00
33865;DHT22;20159;51.072;13.526;2023-04-24T09:46:59;21.30;63.50
33865;DHT22;20159;51.072;13.526;2023-04-24T09:49:27;21.30;62.60
33865;DHT22;20159;51.072;13.526;2023-04-24T09:52:05;21.40;62.70
33865;DHT22;20159;51.072;13.526;2023-04-24T09:54:31;21.30;60.80
33865;DHT22;20159;51.072;13.526;2023-04-24T09:56:56;21.40;62.90
33865;DHT22;20159;51.072;13.526;2023-04-24T09:59:22;21.40;62.20
33865;DHT22;20159;51.072;13.526;2023-04-24T10:01:48;21.40;61.90
33865;DHT22;20159;51.072;13.526;2023-04-24T10:04:24;21.50;62.20
33865;DHT22;20159;51.072;13.526;2023-04-24T10:06:51;21.50;62.70
33865;DHT22;20159;51.072;13.526;2023-04-24T10:09:18;21.50;63.70
33865;DHT22;20159;51.072;13.526;2023-04-24T10:11:51;21.60;63.50
33865;DHT22;20159;51.072;13.526;2023-04-24T10:14:20;21.70;61.10
33865;DHT22;20159;51.072;13.526;2023-04-24T10:16:47;21.90;61.60
33865;DHT22;20159;51.072;13.526;2023-04-24T10:19:14;22.00;61.90
33865;DHT22;20159;51.072;13.526;2023-04-24T10:21:41;22.10;60.70
33865;DHT22;20159;51.072;13.526;2023-04-24T10:24:08;22.20;60.40
33865;DHT22;20159;51.072;13.526;2023-04-24T10:26:34;22.30;62.00
33865;DHT22;20159;51.072;13.526;2023-04-24T10:29:01;22.50;61.50
33865;DHT22;20159;51.072;13.526;2023-04-24T10:31:28;22.60;60.60
33865;DHT22;20159;51.072;13.526;2023-04-24T10:33:56;22.70;60.00
33865;DHT22;20159;51.072;13.526;2023-04-24T10:36:24;22.90;60.40
33865;DHT22;20159;51.072;13.526;2023-04-24T10:38:52;23.00;59.70
33865;DHT22;20159;51.072;13.526;2023-04-24T10:41:20;23.10;58.00
33865;DHT22;20159;51.072;13.526;2023-04-24T10:44:10;23.20;57.60
33865;DHT22;20159;51.072;13.526;2023-04-24T10:46:37;23.20;56.50
33865;DHT22;20159;51.072;13.526;2023-04-24T10:49:06;23.20;57.90
33865;DHT22;20159;51.072;13.526;2023-04-24T10:52:03;23.20;55.10
33865;DHT22;20159;51.072;13.526;2023-04-24T10:54:42;23.10;55.60
33865;DHT22;20159;51.072;13.526;2023-04-24T10:59:47;22.90;56.30
33865;DHT22;20159;51.072;13.526;2023-04-24T11:02:16;22.70;55.80
33865;DHT22;20159;51.072;13.526;2023-04-24T11:04:42;22.40;56.70
33865;DHT22;20159;51.072;13.526;2023-04-24T11:07:12;22.50;56.20
33865;DHT22;20159;51.072;13.526;2023-04-24T11:09:38;22.30;56.60
33865;DHT22;20159;51.072;13.526;2023-04-24T11:12:09;22.20;57.60
33865;DHT22;20159;51.072;13.526;2023-04-24T11:17:42;21.90;57.30
33865;DHT22;20159;51.072;13.526;2023-04-24T11:20:10;21.80;58.70
33865;DHT22;20159;51.072;13.526;2023-04-24T11:22:38;21.60;58.00
33865;DHT22;20159;51.072;13.526;2023-04-24T11:25:05;21.50;57.90
33865;DHT22;20159;51.072;13.526;2023-04-24T11:30:03;21.10;59.30
33865;DHT22;20159;51.072;13.526;2023-04-24T11:32:38;21.10;60.20
33865;DHT22;20159;51.072;13.526;2023-04-24T11:35:12;21.10;60.20
33865;DHT22;20159;51.072;13.526;2023-04-24T11:37:40;21.10;59.40
33865;DHT22;20159;51.072;13.526;2023-04-24T11:40:08;21.20;58.90
33865;DHT22;20159;51.072;13.526;2023-04-24T11:42:35;21.20;59.40
33865;DHT22;20159;51.072;13.526;2023-04-24T11:45:01;21.20;59.10
33865;DHT22;20159;51.072;13.526;2023-04-24T11:47:30;21.10;57.70
33865;DHT22;20159;51.072;13.526;2023-04-24T11:49:58;21.00;57.20
33865;DHT22;20159;51.072;13.526;2023-04-24T11:52:24;20.90;56.80
33865;DHT22;20159;51.072;13.526;2023-04-24T11:54:50;20.80;57.30
33865;DHT22;20159;51.072;13.526;2023-04-24T11:57:16;20.70;58.30
33865;DHT22;20159;51.072;13.526;2023-04-24T11:59:41;20.70;59.80
33865;DHT22;20159;51.072;13.526;2023-04-24T12:02:07;20.80;60.70
33865;DHT22;20159;51.072;13.526;2023-04-24T12:04:40;21.00;59.30
33865;DHT22;20159;51.072;13.526;2023-04-24T12:07:06;21.20;56.00
33865;DHT22;20159;51.072;13.526;2023-04-24T12:09:47;21.30;56.10
33865;DHT22;20159;51.072;13.526;2023-04-24T12:12:14;21.50;55.70
33865;DHT22;20159;51.072;13.526;2023-04-24T12:14:48;21.80;58.00
33865;DHT22;20159;51.072;13.526;2023-04-24T12:17:14;22.00;56.50
33865;DHT22;20159;51.072;13.526;2023-04-24T12:19:46;22.30;55.30
33865;DHT22;20159;51.072;13.526;2023-04-24T12:22:11;22.50;53.30
33865;DHT22;20159;51.072;13.526;2023-04-24T12:24:56;22.60;52.10
33865;DHT22;20159;51.072;13.526;2023-04-24T12:27:22;22.70;51.80
33865;DHT22;20159;51.072;13.526;2023-04-24T12:29:56;22.70;50.90
33865;DHT22;20159;51.072;13.526;2023-04-24T12:32:21;22.50;50.60
33865;DHT22;20159;51.072;13.526;2023-04-24T12:34:47;22.40;50.90
33865;DHT22;20159;51.072;13.526;2023-04-24T12:37:14;22.30;49.60
33865;DHT22;20159;51.072;13.526;2023-04-24T12:40:04;22.20;50.20
33865;DHT22;20159;51.072;13.526;2023-04-24T12:42:31;22.10;49.00
33865;DHT22;20159;51.072;13.526;2023-04-24T12:44:58;22.00;49.90
33865;DHT22;20159;51.072;13.526;2023-04-24T12:47:25;22.00;50.60
33865;DHT22;20159;51.072;13.526;2023-04-24T12:49:50;22.10;50.10
33865;DHT22;20159;51.072;13.526;2023-04-24T12:52:20;22.20;49.60
33865;DHT22;20159;51.072;13.526;2023-04-24T12:54:46;22.30;48.90
33865;DHT22;20159;51.072;13.526;2023-04-24T12:57:12;22.40;47.80
33865;DHT22;20159;51.072;13.526;2023-04-24T12:59:37;22.40;47.60
33865;DHT22;20159;51.072;13.526;2023-04-24T13:02:04;22.30;47.70
33865;DHT22;20159;51.072;13.526;2023-04-24T13:04:30;22.20;47.90
33865;DHT22;20159;51.072;13.526;2023-04-24T13:06:56;22.10;49.40
33865;DHT22;20159;51.072;13.526;2023-04-24T13:09:21;22.10;49.40
33865;DHT22;20159;51.072;13.526;2023-04-24T13:11:47;22.20;49.30
33865;DHT22;20159;51.072;13.526;2023-04-24T13:14:12;22.30;49.20
33865;DHT22;20159;51.072;13.526;2023-04-24T13:16:37;22.50;48.80
33865;DHT22;20159;51.072;13.526;2023-04-24T13:19:03;22.70;48.70
33865;DHT22;20159;51.072;13.526;2023-04-24T13:21:29;22.90;48.40
33865;DHT22;20159;51.072;13.526;2023-04-24T13:23:55;23.10;46.00
33865;DHT22;20159;51.072;13.526;2023-04-24T13:26:21;23.20;44.80
33865;DHT22;20159;51.072;13.526;2023-04-24T13:28:46;23.20;45.00
33865;DHT22;20159;51.072;13.526;2023-04-24T13:31:12;23.30;44.10
33865;DHT22;20159;51.072;13.526;2023-04-24T13:33:39;23.30;44.40
33865;DHT22;20159;51.072;13.526;2023-04-24T13:36:05;23.40;44.30
33865;DHT22;20159;51.072;13.526;2023-04-24T13:38:30;23.40;44.10
33865;DHT22;20159;51.072;13.526;2023-04-24T13:40:56;23.50;44.10
33865;DHT22;20159;51.072;13.526;2023-04-24T13:43:22;23.50;43.50
33865;DHT22;20159;51.072;13.526;2023-04-24T13:45:47;23.50;43.50
33865;DHT22;20159;51.072;13.526;2023-04-24T13:48:13;23.40;43.70
33865;DHT22;20159;51.072;13.526;2023-04-24T13:50:41;23.40;43.40
33865;DHT22;20159;51.072;13.526;2023-04-24T13:53:07;23.40;43.30
33865;DHT22;20159;51.072;13.526;2023-04-24T13:55:32;23.40;43.70
33865;DHT22;20159;51.072;13.526;2023-04-24T13:57:58;23.40;43.70
33865;DHT22;20159;51.072;13.526;2023-04-24T14:00:23;23.40;43.10
33865;DHT22;20159;51.072;13.526;2023-04-24T14:02:49;23.30;42.70
33865;DHT22;20159;51.072;13.526;2023-04-24T14:05:14;23.30;43.10
33865;DHT22;20159;51.072;13.526;2023-04-24T14:07:43;23.30;42.70
33865;DHT22;20159;51.072;13.526;2023-04-24T14:10:09;23.10;42.70
33865;DHT22;20159;51.072;13.526;2023-04-24T14:12:35;23.10;42.90
33865;DHT22;20159;51.072;13.526;2023-04-24T14:15:00;23.10;42.60
33865;DHT22;20159;51.072;13.526;2023-04-24T14:17:27;23.10;43.00
33865;DHT22;20159;51.072;13.526;2023-04-24T14:19:52;23.10;42.40
33865;DHT22;20159;51.072;13.526;2023-04-24T14:22:21;23.20;42.50
33865;DHT22;20159;51.072;13.526;2023-04-24T14:24:46;23.40;43.40
33865;DHT22;20159;51.072;13.526;2023-04-24T14:27:12;23.50;42.90
33865;DHT22;20159;51.072;13.526;2023-04-24T14:29:37;23.70;42.30
33865;DHT22;20159;51.072;13.526;2023-04-24T14:32:03;23.80;41.90
33865;DHT22;20159;51.072;13.526;2023-04-24T14:34:28;23.90;42.40
33865;DHT22;20159;51.072;13.526;2023-04-24T14:36:54;24.00;41.80
33865;DHT22;20159;51.072;13.526;2023-04-24T14:39:19;24.00;41.40
33865;DHT22;20159;51.072;13.526;2023-04-24T14:41:45;24.00;41.70
33865;DHT22;20159;51.072;13.526;2023-04-24T14:44:11;23.90;41.50
33865;DHT22;20159;51.072;13.526;2023-04-24T14:46:36;23.80;41.30
33865;DHT22;20159;51.072;13.526;2023-04-24T14:49:02;23.60;41.50
33865;DHT22;20159;51.072;13.526;2023-04-24T14:51:28;23.50;41.70
33865;DHT22;20159;51.072;13.526;2023-04-24T14:53:53;23.40;42.40
33865;DHT22;20159;51.072;13.526;2023-04-24T14:56:19;23.20;43.10
33865;DHT22;20159;51.072;13.526;2023-04-24T14:58:44;23.10;42.40
33865;DHT22;20159;51.072;13.526;2023-04-24T15:01:10;23.10;42.90
33865;DHT22;20159;51.072;13.526;2023-04-24T15:03:36;23.00;42.70
33865;DHT22;20159;51.072;13.526;2023-04-24T15:06:02;23.10;42.10
33865;DHT22;20159;51.072;13.526;2023-04-24T15:08:28;23.10;40.90
33865;DHT22;20159;51.072;13.526;2023-04-24T15:10:53;23.20;41.20
33865;DHT22;20159;51.072;13.526;2023-04-24T15:13:19;23.20;41.10
33865;DHT22;20159;51.072;13.526;2023-04-24T15:15:46;23.20;40.80
33865;DHT22;20159;51.072;13.526;2023-04-24T15:18:12;23.20;40.40
33865;DHT22;20159;51.072;13.526;2023-04-24T15:20:38;23.10;40.70